Time;durP1;ratioP1;P1;durP2;ratioP2;P2;SDS_P1;SDS_P2;PMS_P1;PMS_P2;Temp;Humidity;BMP_temperature;BMP_pressure;BME280_temperature;BME280_humidity;BME280_pressure;Samples;Min_cycle;Max_cycle;Signal;HPM_P1;HPM_P2
2022/10/28 00:01:08;;;;;;;8.73;2.90;;;;;;;10.98;100.00;100708.00;5038570;28;20056;-50
2022/10/28 00:03:37;;;;;;;3.17;1.33;;;;;;;10.90;100.00;100702.81;5034323;28;20029;-55
2022/10/28 00:06:06;;;;;;;4.20;1.48;;;;;;;10.89;100.00;100711.75;5030883;28;20034;-52
2022/10/28 00:08:32;;;;;;;2.65;2.33;;;;;;;10.83;100.00;100709.84;5033640;28;20033;-54
2022/10/28 00:11:09;;;;;;;1.65;1.20;;;;;;;10.83;100.00;100712.50;5028038;28;20114;-54
2022/10/28 00:13:36;;;;;;;4.20;2.67;;;;;;;10.82;100.00;100718.84;5032251;28;20056;-53
2022/10/28 00:16:07;;;;;;;3.63;1.52;;;;;;;10.81;100.00;100702.09;5031085;28;20414;-53
2022/10/28 00:18:32;;;;;;;8.65;1.92;;;;;;;10.73;100.00;100712.81;5040976;28;20033;-52
2022/10/28 00:21:00;;;;;;;4.68;1.35;;;;;;;10.72;100.00;100713.00;5031902;28;20733;-51
2022/10/28 00:23:26;;;;;;;11.55;1.92;;;;;;;10.69;100.00;100715.03;5036762;28;20372;-52
2022/10/28 00:25:51;;;;;;;4.18;2.53;;;;;;;10.69;100.00;100722.16;5029076;28;20032;-54
2022/10/28 00:28:16;;;;;;;2.25;1.88;;;;;;;10.61;100.00;100717.78;5037895;28;20125;-56
2022/10/28 00:30:42;;;;;;;3.38;3.03;;;;;;;10.53;100.00;100717.84;5029965;28;20026;-53
2022/10/28 00:33:07;;;;;;;3.53;1.30;;;;;;;10.51;100.00;100719.06;5031010;28;20033;-53
2022/10/28 00:35:32;;;;;;;5.45;1.55;;;;;;;10.49;100.00;100724.56;5040453;28;20032;-49
2022/10/28 00:37:58;;;;;;;2.83;1.67;;;;;;;10.48;100.00;100722.91;5034714;28;20064;-51
2022/10/28 00:40:23;;;;;;;4.47;1.52;;;;;;;10.46;100.00;100714.31;5031510;28;20150;-49
2022/10/28 00:42:48;;;;;;;4.22;1.70;;;;;;;10.38;100.00;100703.81;5030716;28;20037;-54
2022/10/28 00:45:14;;;;;;;3.47;2.05;;;;;;;10.36;100.00;100708.47;5039228;28;20137;-52
2022/10/28 00:47:42;;;;;;;5.38;1.77;;;;;;;10.36;100.00;100700.53;5039921;28;20417;-53
2022/10/28 00:50:34;;;;;;;2.67;1.20;;;;;;;10.32;100.00;100693.94;5030215;28;20075;-54
2022/10/28 00:53:03;;;;;;;3.30;1.35;;;;;;;10.24;100.00;100687.69;5029874;28;20041;-54
2022/10/28 00:55:31;;;;;;;2.08;1.52;;;;;;;10.18;100.00;100698.22;5033191;28;20048;-52
2022/10/28 00:57:59;;;;;;;6.32;2.22;;;;;;;10.12;100.00;100696.28;5031110;28;20021;-56
2022/10/28 01:00:25;;;;;;;1.92;1.23;;;;;;;10.05;100.00;100693.56;5031636;28;20079;-50
2022/10/28 01:02:51;;;;;;;2.40;1.25;;;;;;;10.00;100.00;100687.97;5030632;28;20028;-56
2022/10/28 01:05:21;;;;;;;3.47;1.92;;;;;;;9.94;100.00;100689.53;5043106;28;20043;-53
2022/10/28 01:07:47;;;;;;;1.35;1.02;;;;;;;9.90;100.00;100700.66;5033970;28;20427;-55
2022/10/28 01:10:14;;;;;;;2.47;1.83;;;;;;;9.89;100.00;100702.50;5038729;28;20509;-56
2022/10/28 01:13:10;;;;;;;2.67;1.50;;;;;;;9.91;100.00;100695.16;5033517;28;20131;-51
2022/10/28 01:16:03;;;;;;;2.42;1.08;;;;;;;9.88;100.00;100702.66;5031709;28;20025;-52
2022/10/28 01:18:52;;;;;;;4.95;1.92;;;;;;;9.87;100.00;100691.25;5042889;28;20435;-56
2022/10/28 01:21:42;;;;;;;5.90;2.15;;;;;;;9.82;100.00;100693.63;5034908;28;20484;-59
2022/10/28 01:24:32;;;;;;;2.28;1.50;;;;;;;9.79;100.00;100699.28;5033667;28;20040;-51
2022/10/28 01:27:06;;;;;;;3.15;1.58;;;;;;;9.76;100.00;100692.53;5028101;28;20286;-52
2022/10/28 01:29:53;;;;;;;5.38;1.92;;;;;;;9.76;100.00;100684.59;5046203;28;20052;-49
2022/10/28 01:32:37;;;;;;;8.98;2.13;;;;;;;9.77;100.00;100682.75;5028004;28;20033;-52
2022/10/28 01:35:17;;;;;;;6.13;1.70;;;;;;;9.76;100.00;100668.69;5034824;28;20053;-52
2022/10/28 01:38:10;;;;;;;3.67;1.25;;;;;;;9.77;100.00;100665.03;5038503;28;20024;-52
2022/10/28 01:41:07;;;;;;;5.88;2.22;;;;;;;9.77;100.00;100661.56;5027872;28;20037;-53
2022/10/28 01:43:47;;;;;;;6.57;1.85;;;;;;;9.73;100.00;100663.78;5029054;28;20041;-49
2022/10/28 01:46:27;;;;;;;3.88;1.73;;;;;;;9.73;100.00;100658.47;5031904;28;20074;-49
2022/10/28 01:49:01;;;;;;;8.55;1.73;;;;;;;9.70;100.00;100650.88;5032605;28;20038;-52
2022/10/28 01:51:33;;;;;;;7.03;2.47;;;;;;;9.68;100.00;100644.94;5029728;28;20029;-50
2022/10/28 01:54:03;;;;;;;1.40;1.30;;;;;;;9.66;100.00;100641.66;5042565;28;20017;-52
2022/10/28 01:56:33;;;;;;;5.57;1.85;;;;;;;9.70;100.00;100624.38;5038122;28;20509;-55
2022/10/28 01:59:00;;;;;;;4.00;1.88;;;;;;;9.66;100.00;100625.78;5034884;28;20037;-54
2022/10/28 02:01:29;;;;;;;5.05;1.55;;;;;;;9.66;100.00;100636.38;5039799;28;20029;-50
2022/10/28 02:03:56;;;;;;;5.30;2.17;;;;;;;9.64;100.00;100625.13;5046776;28;20025;-56
2022/10/28 02:06:25;;;;;;;6.20;1.88;;;;;;;9.69;100.00;100616.66;5050598;28;20041;-54
2022/10/28 02:09:13;;;;;;;4.25;2.10;;;;;;;9.65;100.00;100602.94;5045067;28;20028;-53
2022/10/28 02:12:08;;;;;;;2.90;1.83;;;;;;;9.60;100.00;100598.19;5038107;28;20033;-51
2022/10/28 02:14:53;;;;;;;4.20;1.77;;;;;;;9.63;100.00;100589.06;5035795;28;20022;-55
2022/10/28 02:17:43;;;;;;;4.10;1.92;;;;;;;9.68;100.00;100586.72;5035990;28;20029;-54
2022/10/28 02:20:29;;;;;;;3.10;1.25;;;;;;;9.75;100.00;100576.19;5041015;28;20040;-50
2022/10/28 02:23:01;;;;;;;9.30;2.22;;;;;;;9.85;100.00;100587.31;5039659;28;20473;-52
2022/10/28 02:26:07;;;;;;;6.53;1.95;;;;;;;9.95;100.00;100581.75;5036772;28;20029;-49
2022/10/28 02:28:39;;;;;;;1.70;1.60;;;;;;;10.01;100.00;100573.06;5028034;28;20050;-52
2022/10/28 02:31:33;;;;;;;3.88;2.63;;;;;;;10.01;100.00;100565.13;5017760;28;20526;-52
2022/10/28 02:34:10;;;;;;;6.55;2.40;;;;;;;10.09;100.00;100559.69;5029222;28;20037;-50
2022/10/28 02:36:40;;;;;;;10.65;2.78;;;;;;;10.59;100.00;100554.59;5035943;28;20130;-54
2022/10/28 02:39:06;;;;;;;6.35;2.60;;;;;;;10.93;100.00;100559.16;5032184;28;20021;-54
2022/10/28 02:41:42;;;;;;;15.07;5.20;;;;;;;11.55;100.00;100563.69;5033509;28;20033;-53
2022/10/28 02:44:11;;;;;;;8.38;4.68;;;;;;;11.87;100.00;100561.44;5034176;28;20033;-54
2022/10/28 02:46:40;;;;;;;13.38;3.70;;;;;;;12.11;100.00;100556.66;5034748;28;20053;-55
2022/10/28 02:49:10;;;;;;;10.85;3.92;;;;;;;12.25;100.00;100553.00;5031953;28;20029;-51
2022/10/28 02:51:43;;;;;;;8.02;4.10;;;;;;;12.25;100.00;100546.88;5039980;28;20025;-51
2022/10/28 02:54:14;;;;;;;15.93;3.85;;;;;;;12.35;100.00;100542.81;5042881;28;20025;-55
2022/10/28 02:56:54;;;;;;;;;;;;;;;12.46;100.00;100540.56;5039778;28;20025;-55
2022/10/28 02:59:22;;;;;;;9.15;3.05;;;;;;;12.44;100.00;100546.94;5038083;28;19939;-50
2022/10/28 03:01:47;;;;;;;9.48;3.65;;;;;;;12.42;100.00;100553.47;5038395;28;20041;-56
2022/10/28 03:04:13;;;;;;;12.43;4.03;;;;;;;12.40;100.00;100548.34;5035818;28;20029;-50
2022/10/28 03:06:38;;;;;;;23.20;5.47;;;;;;;12.36;100.00;100544.44;5035827;28;20037;-52
2022/10/28 03:09:04;;;;;;;16.92;5.05;;;;;;;12.32;100.00;100543.22;5035717;28;20084;-52
2022/10/28 03:11:29;;;;;;;8.55;3.78;;;;;;;12.41;100.00;100552.63;5036212;28;20037;-52
2022/10/28 03:13:54;;;;;;;6.57;3.55;;;;;;;12.39;100.00;100559.16;5034183;28;20116;-54
2022/10/28 03:16:20;;;;;;;20.08;4.80;;;;;;;12.40;100.00;100564.28;5034306;28;20059;-53
2022/10/28 03:18:45;;;;;;;10.20;3.20;;;;;;;12.39;100.00;100565.31;5045205;28;20029;-50
2022/10/28 03:21:11;;;;;;;8.27;3.78;;;;;;;12.36;100.00;100557.72;5039470;28;20121;-50
2022/10/28 03:23:36;;;;;;;10.15;3.15;;;;;;;12.33;100.00;100555.47;5038966;28;20031;-53
2022/10/28 03:26:01;;;;;;;24.15;4.15;;;;;;;12.26;100.00;100548.50;5036310;28;20025;-52
2022/10/28 03:28:27;;;;;;;7.38;3.80;;;;;;;12.22;100.00;100543.59;5035265;28;20112;-51
2022/10/28 03:30:52;;;;;;;6.93;3.47;;;;;;;12.28;100.00;100531.31;5030720;28;20040;-47
2022/10/28 03:33:17;;;;;;;10.07;3.40;;;;;;;12.32;100.00;100534.41;5030672;28;20022;-49
2022/10/28 03:35:43;;;;;;;11.57;4.03;;;;;;;12.34;100.00;100527.88;5036115;28;20100;-48
2022/10/28 03:38:09;;;;;;;4.88;3.08;;;;;;;12.32;100.00;100521.94;5035484;28;20035;-51
2022/10/28 03:40:34;;;;;;;7.05;2.90;;;;;;;12.29;100.00;100517.03;5032331;28;20029;-53
2022/10/28 03:42:59;;;;;;;6.72;3.92;;;;;;;12.19;100.00;100512.09;5033437;28;20033;-49
2022/10/28 03:45:25;;;;;;;5.00;3.47;;;;;;;12.29;100.00;100517.03;5032527;28;20040;-49
2022/10/28 03:47:50;;;;;;;9.15;3.45;;;;;;;12.35;100.00;100504.78;5037525;28;20334;-50
2022/10/28 03:50:16;;;;;;;10.45;3.58;;;;;;;12.35;100.00;100494.94;5035541;28;20029;-53
2022/10/28 03:52:43;;;;;;;7.63;3.88;;;;;;;12.43;100.00;100497.41;5027109;28;20120;-52
2022/10/28 03:55:08;;;;;;;9.98;3.83;;;;;;;12.44;100.00;100492.91;5035112;28;20052;-53
2022/10/28 03:57:33;;;;;;;15.13;3.38;;;;;;;12.43;100.00;100492.09;5032032;28;20120;-51
2022/10/28 03:59:59;;;;;;;5.18;3.35;;;;;;;12.52;100.00;100494.53;5031653;28;20079;-53
2022/10/28 04:02:25;;;;;;;6.50;2.78;;;;;;;12.52;100.00;100494.53;5039748;28;20025;-49
2022/10/28 04:04:51;;;;;;;8.77;3.80;;;;;;;12.52;100.00;100489.22;5037969;28;20036;-53
2022/10/28 04:07:16;;;;;;;17.08;4.68;;;;;;;12.53;100.00;100482.91;5036521;28;20407;-52
2022/10/28 04:09:41;;;;;;;6.45;3.17;;;;;;;12.63;100.00;100485.97;5041248;28;20036;-53
2022/10/28 04:12:09;;;;;;;10.27;3.88;;;;;;;12.63;100.00;100473.50;5033884;28;20085;-51
2022/10/28 04:14:35;;;;;;;15.00;3.28;;;;;;;12.65;100.00;100494.59;5034843;28;20033;-50
2022/10/28 04:17:00;;;;;;;12.20;3.97;;;;;;;12.66;100.00;100496.22;5036272;28;20055;-54
2022/10/28 04:19:26;;;;;;;8.85;3.65;;;;;;;12.64;100.00;100498.25;5038648;28;20136;-49
2022/10/28 04:21:51;;;;;;;8.32;5.03;;;;;;;12.64;100.00;100493.75;5036225;28;20071;-55
2022/10/28 04:24:16;;;;;;;9.05;3.65;;;;;;;12.65;100.00;100489.25;5041961;28;20035;-50
2022/10/28 04:26:42;;;;;;;7.63;3.83;;;;;;;12.60;100.00;100489.88;5039001;28;20520;-53
2022/10/28 04:29:07;;;;;;;13.15;4.65;;;;;;;12.59;100.00;100493.53;5032906;28;20471;-55
2022/10/28 04:31:33;;;;;;;18.08;3.15;;;;;;;12.63;100.00;100491.31;5041156;28;20527;-49
2022/10/28 04:33:58;;;;;;;17.98;6.07;;;;;;;12.63;100.00;100493.97;5042006;28;20029;-49
2022/10/28 04:36:23;;;;;;;14.35;5.53;;;;;;;12.63;100.00;100501.94;5028325;28;20047;-53
2022/10/28 04:38:50;;;;;;;9.52;3.80;;;;;;;12.66;100.00;100496.22;5030292;28;20439;-50
2022/10/28 04:41:16;;;;;;;9.73;3.65;;;;;;;12.67;100.00;100495.16;5038818;28;20249;-52
2022/10/28 04:43:42;;;;;;;12.45;3.35;;;;;;;12.82;100.00;100498.44;5042492;28;20032;-50
2022/10/28 04:46:08;;;;;;;8.02;2.80;;;;;;;12.85;100.00;100487.38;5042190;28;20037;-49
2022/10/28 04:48:34;;;;;;;16.73;4.30;;;;;;;12.88;100.00;100481.69;5034343;28;20035;-50
2022/10/28 04:50:59;;;;;;;16.98;4.95;;;;;;;12.92;100.00;100484.75;5043189;28;20029;-51
2022/10/28 04:53:24;;;;;;;9.38;3.10;;;;;;;12.94;100.00;100497.84;5037361;28;20037;-49
2022/10/28 04:55:50;;;;;;;10.52;3.90;;;;;;;13.02;100.00;100502.94;5044090;28;20076;-49
2022/10/28 04:58:15;;;;;;;14.20;4.88;;;;;;;13.03;100.00;100501.91;5031433;28;20329;-50
2022/10/28 05:00:40;;;;;;;8.25;3.92;;;;;;;13.11;100.00;100499.03;5036981;28;20091;-50
2022/10/28 05:03:06;;;;;;;9.93;3.55;;;;;;;13.13;100.00;100507.63;5035594;28;20120;-53
2022/10/28 05:05:31;;;;;;;7.05;4.50;;;;;;;13.10;100.00;100516.84;5033269;28;20516;-54
2022/10/28 05:07:57;;;;;;;17.00;4.78;;;;;;;13.11;100.00;100509.69;5035516;28;20398;-52
2022/10/28 05:10:22;;;;;;;8.75;3.00;;;;;;;13.12;100.00;100522.00;5035673;28;20055;-55
2022/10/28 05:12:47;;;;;;;8.80;4.05;;;;;;;13.13;100.00;100520.94;5036800;28;20105;-54
2022/10/28 05:15:14;;;;;;;12.57;3.42;;;;;;;13.15;100.00;100521.56;5038315;28;20060;-55
2022/10/28 05:17:42;;;;;;;11.05;4.90;;;;;;;13.18;100.00;100509.69;5035494;28;20044;-50
2022/10/28 05:20:08;;;;;;;6.55;3.85;;;;;;;13.15;100.00;100524.22;5031426;28;20112;-53
2022/10/28 05:22:34;;;;;;;10.68;3.38;;;;;;;13.17;100.00;100519.53;5027951;28;20032;-54
2022/10/28 05:24:59;;;;;;;5.90;3.03;;;;;;;13.18;100.00;100525.66;5027966;28;20029;-51
2022/10/28 05:27:24;;;;;;;11.90;4.72;;;;;;;13.21;100.00;100528.72;5034857;28;20044;-50
2022/10/28 05:29:50;;;;;;;8.80;3.65;;;;;;;13.25;100.00;100521.97;5036985;28;20140;-49
2022/10/28 05:32:15;;;;;;;7.22;4.28;;;;;;;13.26;100.00;100522.78;5037466;28;20064;-50
2022/10/28 05:34:40;;;;;;;20.58;3.70;;;;;;;13.23;100.00;100521.34;5031385;28;20115;-55
2022/10/28 05:37:06;;;;;;;14.35;3.83;;;;;;;13.27;100.00;100525.28;5039234;28;20398;-52
2022/10/28 05:39:31;;;;;;;9.98;5.18;;;;;;;13.27;100.00;100521.81;5034679;28;20056;-53
2022/10/28 05:41:56;;;;;;;15.05;3.45;;;;;;;13.26;100.00;100528.94;5039436;28;20036;-53
2022/10/28 05:44:22;;;;;;;10.48;3.83;;;;;;;13.24;100.00;100520.34;5031383;28;20036;-51
2022/10/28 05:46:47;;;;;;;15.40;4.65;;;;;;;13.25;100.00;100529.13;5037868;28;20028;-52
2022/10/28 05:49:12;;;;;;;4.90;3.78;;;;;;;13.22;100.00;100538.34;5034777;28;20473;-55
2022/10/28 05:51:38;;;;;;;12.80;3.40;;;;;;;13.28;100.00;100540.22;5034462;28;20029;-52
2022/10/28 05:54:03;;;;;;;7.70;2.65;;;;;;;13.31;100.00;100538.97;5030891;28;20022;-53
2022/10/28 05:56:29;;;;;;;10.82;4.72;;;;;;;13.30;100.00;100542.69;5034296;28;20037;-54
2022/10/28 05:58:54;;;;;;;7.13;4.28;;;;;;;13.30;100.00;100535.50;5032033;28;20044;-51
2022/10/28 06:01:19;;;;;;;14.13;4.47;;;;;;;13.26;100.00;100539.59;5042365;28;20024;-53
2022/10/28 06:03:45;;;;;;;11.60;3.45;;;;;;;13.22;100.00;100535.69;5029926;28;20069;-51
2022/10/28 06:06:10;;;;;;;12.77;4.75;;;;;;;13.26;100.00;100531.59;5038880;28;20028;-56
2022/10/28 06:08:35;;;;;;;8.18;2.90;;;;;;;13.22;100.00;100533.03;5035043;28;20036;-54
2022/10/28 06:11:01;;;;;;;14.07;4.32;;;;;;;13.20;100.00;100524.44;5030800;28;20065;-55
2022/10/28 06:13:26;;;;;;;9.02;3.22;;;;;;;13.20;100.00;100503.13;5033000;28;20075;-50
2022/10/28 06:15:53;;;;;;;10.88;3.05;;;;;;;13.31;100.00;100509.69;5042122;28;20032;-53
2022/10/28 06:18:19;;;;;;;14.15;4.32;;;;;;;13.33;100.00;100520.97;5046009;28;20029;-50
2022/10/28 06:20:50;;;;;;;16.90;4.93;;;;;;;13.42;100.00;100509.03;5031998;28;20039;-50
2022/10/28 06:23:15;;;;;;;20.27;4.88;;;;;;;13.49;100.00;100509.03;5044044;28;20025;-50
2022/10/28 06:25:41;;;;;;;10.80;4.28;;;;;;;13.49;100.00;100522.34;5046776;28;20079;-50
2022/10/28 06:28:07;;;;;;;11.07;3.85;;;;;;;13.51;100.00;100522.97;5044605;28;20076;-48
2022/10/28 06:30:33;;;;;;;11.57;3.67;;;;;;;13.57;100.00;100514.13;5040771;28;20024;-48
2022/10/28 06:32:58;;;;;;;12.55;3.00;;;;;;;13.60;100.00;100519.03;5039963;28;20025;-50
2022/10/28 06:35:23;;;;;;;11.70;3.28;;;;;;;13.61;100.00;100518.03;5037454;28;20049;-49
2022/10/28 06:37:58;;;;;;;16.77;2.80;;;;;;;13.71;100.00;100514.91;5035912;28;20101;-51
2022/10/28 06:40:25;;;;;;;5.15;3.50;;;;;;;13.72;100.00;100516.53;5038690;28;20040;-49
2022/10/28 06:43:01;;;;;;;10.75;3.78;;;;;;;13.75;100.00;100516.13;5035753;28;20267;-56
2022/10/28 06:45:31;;;;;;;11.73;3.33;;;;;;;13.73;100.00;100524.34;5041997;28;20033;-53
2022/10/28 06:47:59;;;;;;;12.30;3.28;;;;;;;13.77;100.00;100507.94;5032528;28;20031;-50
2022/10/28 06:50:25;;;;;;;19.50;5.55;;;;;;;13.81;100.00;100528.63;5034769;28;20045;-52
2022/10/28 06:52:51;;;;;;;8.35;4.22;;;;;;;13.83;100.00;100531.06;5034744;28;20038;-54
2022/10/28 06:55:17;;;;;;;14.57;3.47;;;;;;;13.89;100.00;100538.22;5039420;28;20029;-52
2022/10/28 06:57:42;;;;;;;16.77;3.50;;;;;;;13.92;100.00;100537.78;5041020;28;20101;-55
2022/10/28 07:00:08;;;;;;;11.30;3.28;;;;;;;13.94;100.00;100541.88;5040358;28;20037;-58
2022/10/28 07:02:34;;;;;;;13.40;2.92;;;;;;;13.93;100.00;100540.22;5041925;28;20033;-51
2022/10/28 07:04:59;;;;;;;12.77;4.13;;;;;;;13.98;100.00;100542.25;5041018;28;20029;-49
2022/10/28 07:07:24;;;;;;;10.50;2.58;;;;;;;14.05;100.00;100556.41;5046411;28;20029;-57
2022/10/28 07:09:50;;;;;;;11.10;3.13;;;;;;;14.11;100.00;100558.19;5041050;28;20113;-50
2022/10/28 07:12:15;;;;;;;13.63;2.80;;;;;;;14.14;100.00;100560.44;5043653;28;20033;-54
2022/10/28 07:14:40;;;;;;;12.55;2.83;;;;;;;14.16;100.00;100581.56;5036438;28;20486;-53
2022/10/28 07:17:06;;;;;;;13.77;4.03;;;;;;;14.18;100.00;100575.00;5040756;28;20402;-56
2022/10/28 07:19:31;;;;;;;16.55;3.88;;;;;;;14.18;100.00;100568.84;5039436;28;20384;-56
2022/10/28 07:21:56;;;;;;;17.85;3.92;;;;;;;14.17;100.00;100561.84;5037046;28;20105;-56
2022/10/28 07:24:22;;;;;;;5.70;2.53;;;;;;;14.18;100.00;100575.00;5044699;28;20032;-53
2022/10/28 07:26:50;;;;;;;12.73;3.13;;;;;;;14.24;100.00;100583.19;5032368;28;20037;-55
2022/10/28 07:29:16;;;;;;;12.25;2.67;;;;;;;14.27;100.00;100582.75;5042985;28;20133;-55
2022/10/28 07:31:41;;;;;;;13.00;4.65;;;;;;;14.29;100.00;100597.50;5032251;28;20662;-55
2022/10/28 07:34:07;;;;;;;11.45;4.03;;;;;;;14.31;100.00;100599.97;5037516;28;20397;-53
2022/10/28 07:36:32;;;;;;;7.47;2.00;;;;;;;14.34;100.00;100583.53;5038197;28;20390;-56
2022/10/28 07:38:57;;;;;;;13.52;5.03;;;;;;;14.35;100.00;100588.66;5045076;28;20025;-56
2022/10/28 07:41:23;;;;;;;6.65;2.67;;;;;;;14.38;100.00;100598.09;5041830;28;20471;-54
2022/10/28 07:43:49;;;;;;;17.88;2.88;;;;;;;14.42;100.00;100585.13;5042002;28;20037;-55
2022/10/28 07:46:16;;;;;;;15.68;3.50;;;;;;;14.46;100.00;100592.50;5040729;28;20029;-54
2022/10/28 07:48:41;;;;;;;13.02;5.07;;;;;;;14.48;100.00;100595.78;5037824;28;20056;-57
2022/10/28 07:51:09;;;;;;;9.40;2.97;;;;;;;14.51;100.00;100595.34;5033133;28;20037;-56
2022/10/28 07:53:34;;;;;;;8.40;2.70;;;;;;;14.52;100.00;100594.31;5044177;28;20068;-57
2022/10/28 07:56:02;;;;;;;8.35;2.58;;;;;;;14.58;100.00;100601.47;5031125;28;20061;-56
2022/10/28 07:58:28;;;;;;;5.65;1.67;;;;;;;14.63;100.00;100603.50;5040088;28;20060;-56
2022/10/28 08:00:53;;;;;;;13.98;2.20;;;;;;;14.71;100.00;100599.75;5038326;28;20516;-53
2022/10/28 08:03:19;;;;;;;7.63;2.55;;;;;;;14.76;100.00;100606.09;5038672;28;20041;-54
2022/10/28 08:05:45;;;;;;;17.80;3.15;;;;;;;14.81;100.00;100611.59;5038276;28;20489;-55
2022/10/28 08:08:11;;;;;;;8.00;3.15;;;;;;;14.86;100.00;100602.94;5040762;28;20021;-54
2022/10/28 08:10:36;;;;;;;7.95;1.55;;;;;;;14.90;100.00;100622.03;5038531;28;20068;-57
2022/10/28 08:13:02;;;;;;;17.30;3.10;;;;;;;14.96;100.00;100632.66;5037218;28;20565;-54
2022/10/28 08:15:28;;;;;;;16.17;3.40;;;;;;;15.04;100.00;100627.03;5040627;28;20086;-50
2022/10/28 08:17:54;;;;;;;6.00;2.47;;;;;;;15.11;100.00;100620.84;5032366;28;20052;-52
2022/10/28 08:20:20;;;;;;;11.95;3.42;;;;;;;15.18;100.00;100634.94;5035117;28;20423;-55
2022/10/28 08:22:45;;;;;;;8.35;1.60;;;;;;;15.18;100.00;100638.47;5034680;28;20082;-57
2022/10/28 08:25:11;;;;;;;7.13;1.63;;;;;;;15.19;100.00;100623.25;5033927;28;20406;-54
2022/10/28 08:27:37;;;;;;;12.18;1.88;;;;;;;15.18;100.00;100614.44;5034634;28;20025;-57
2022/10/28 08:30:03;;;;;;;7.45;2.22;;;;;;;15.18;100.00;100622.44;5037030;28;20532;-56
2022/10/28 08:32:30;;;;;;;7.63;1.48;;;;;;;15.16;100.00;100608.47;5037531;28;20045;-57
2022/10/28 08:34:55;;;;;;;12.38;1.83;;;;;;;15.14;100.00;100607.06;5040335;28;20034;-54
2022/10/28 08:37:20;;;;;;;5.07;1.35;;;;;;;15.15;100.00;100612.16;5037852;28;20244;-55
2022/10/28 08:39:46;;;;;;;4.90;2.20;;;;;;;15.15;100.00;100616.69;5034971;28;20029;-50
2022/10/28 08:42:17;;;;;;;6.40;1.45;;;;;;;15.12;100.00;100614.47;5036028;28;20033;-51
2022/10/28 08:44:54;;;;;;;8.07;1.17;;;;;;;15.21;100.00;100600.63;5036142;28;20029;-50
2022/10/28 08:47:48;;;;;;;3.65;1.77;;;;;;;15.29;100.00;100615.56;5029853;28;20091;-51
2022/10/28 08:50:17;;;;;;;8.93;1.13;;;;;;;15.33;100.00;100600.72;5037248;28;20035;-55
2022/10/28 08:52:58;;;;;;;8.13;0.52;;;;;;;15.35;100.00;100608.53;5035654;28;20021;-56
2022/10/28 08:55:34;;;;;;;2.13;1.05;;;;;;;15.41;100.00;100592.44;5032195;28;20033;-54
2022/10/28 08:58:17;;;;;;;3.75;0.60;;;;;;;15.43;100.00;100589.53;5043231;28;20029;-52
2022/10/28 09:00:49;;;;;;;3.72;0.30;;;;;;;15.41;100.00;100595.13;5039553;28;20064;-58
2022/10/28 09:03:15;;;;;;;8.15;1.17;;;;;;;15.41;100.00;100581.75;5048866;28;20036;-52
2022/10/28 09:05:43;;;;;;;4.25;1.85;;;;;;;15.42;100.00;100572.69;5033637;28;20083;-53
2022/10/28 09:08:20;;;;;;;6.97;2.03;;;;;;;15.41;100.00;100586.25;5048298;28;20029;-57
2022/10/28 09:10:57;;;;;;;7.82;1.20;;;;;;;15.44;100.00;100586.66;5042130;28;20080;-57
2022/10/28 09:13:40;;;;;;;4.22;0.82;;;;;;;15.52;100.00;100590.91;5046450;28;20096;-58
2022/10/28 09:16:34;;;;;;;6.00;0.88;;;;;;;15.59;100.00;100599.69;5039891;28;20060;-55
2022/10/28 09:19:43;;;;;;;8.85;0.93;;;;;;;15.60;100.00;100617.34;5042699;28;20560;-55
2022/10/28 09:22:17;;;;;;;7.95;0.43;;;;;;;15.59;100.00;100623.72;5032097;28;21407;-55
2022/10/28 09:25:26;;;;;;;7.07;0.73;;;;;;;15.56;100.00;100618.81;5044752;28;20025;-58
2022/10/28 09:28:17;;;;;;;7.05;1.38;;;;;;;15.58;100.00;100626.59;5040048;28;20077;-52
2022/10/28 09:30:47;;;;;;;4.05;0.60;;;;;;;15.55;100.00;100627.06;5036390;28;20064;-52
2022/10/28 09:33:24;;;;;;;6.43;0.80;;;;;;;15.50;100.00;100630.38;5036950;28;20079;-54
2022/10/28 09:35:51;;;;;;;4.60;0.60;;;;;;;15.42;100.00;100628.81;5042200;28;20432;-56
2022/10/28 09:38:33;;;;;;;3.22;0.52;;;;;;;15.47;100.00;100646.84;5040496;28;20111;-52
2022/10/28 09:41:03;;;;;;;;;;;;;;;15.49;100.00;100653.63;5045121;28;20079;-56
2022/10/28 09:43:41;;;;;;;6.13;0.50;;;;;;;15.57;100.00;100655.19;5044075;28;19978;-54
2022/10/28 09:46:11;;;;;;;2.45;0.47;;;;;;;15.61;100.00;100653.69;5039361;28;20065;-57
2022/10/28 09:48:40;;;;;;;5.00;1.00;;;;;;;15.69;100.00;100672.19;5046032;28;20041;-52
2022/10/28 09:51:06;;;;;;;2.13;0.40;;;;;;;15.68;100.00;100650.97;5046153;28;20040;-50
2022/10/28 09:53:50;;;;;;;6.80;0.85;;;;;;;15.70;100.00;100649.75;5038638;28;20037;-53
2022/10/28 09:56:15;;;;;;;8.38;0.45;;;;;;;15.69;100.00;100642.78;5036574;28;20040;-53
2022/10/28 09:58:45;;;;;;;7.55;0.73;;;;;;;15.76;100.00;100649.91;5042901;28;20037;-54
2022/10/28 10:01:12;;;;;;;4.32;0.30;;;;;;;15.74;100.00;100666.16;5039740;28;20040;-54
2022/10/28 10:03:39;;;;;;;3.55;0.93;;;;;;;15.69;100.00;100660.66;5041205;28;20099;-51
2022/10/28 10:06:37;;;;;;;7.95;1.02;;;;;;;15.76;100.00;100665.94;5035460;28;20033;-52
2022/10/28 10:09:03;;;;;;;3.05;0.45;;;;;;;15.74;100.00;100682.19;5038328;28;20029;-52
2022/10/28 10:11:43;;;;;;;2.63;0.30;;;;;;;15.73;100.00;100693.13;5040954;28;20033;-53
2022/10/28 10:14:12;;;;;;;5.65;1.42;;;;;;;15.67;100.00;100684.09;5042108;28;20036;-55
2022/10/28 10:16:46;;;;;;;3.95;0.52;;;;;;;15.60;100.00;100694.84;5042455;28;20091;-56
2022/10/28 10:19:11;;;;;;;2.55;0.40;;;;;;;15.48;100.00;100702.72;5038544;28;20463;-55
2022/10/28 10:21:45;;;;;;;2.47;0.77;;;;;;;15.55;100.00;100708.03;5039994;28;20043;-54
2022/10/28 10:24:33;;;;;;;6.35;1.15;;;;;;;15.51;100.00;100695.31;5041190;28;20024;-54
2022/10/28 10:27:19;;;;;;;1.77;0.57;;;;;;;15.59;100.00;100708.41;5044575;28;20025;-51
2022/10/28 10:29:51;;;;;;;6.90;1.27;;;;;;;15.62;100.00;100708.00;5040874;28;20056;-56
2022/10/28 10:32:33;;;;;;;2.78;0.32;;;;;;;15.67;100.00;100710.84;5033569;28;20036;-50
2022/10/28 10:35:08;;;;;;;6.32;1.23;;;;;;;15.64;100.00;100700.56;5038286;28;20036;-52
2022/10/28 10:37:34;;;;;;;2.47;0.13;;;;;;;15.62;100.00;100710.66;5037378;28;20025;-57
2022/10/28 10:40:03;;;;;;;4.28;0.35;;;;;;;15.73;100.00;100712.66;5036403;28;20025;-53
2022/10/28 10:42:28;;;;;;;7.47;0.50;;;;;;;15.81;100.00;100720.38;5042970;28;20052;-55
2022/10/28 10:45:17;;;;;;;3.00;0.98;;;;;;;15.86;100.00;100719.72;5043963;28;20486;-50
2022/10/28 10:47:43;;;;;;;3.67;0.40;;;;;;;15.72;100.00;100712.84;5038642;28;20112;-53
2022/10/28 10:50:20;;;;;;;3.55;1.10;;;;;;;15.59;100.00;100719.09;5043269;28;20190;-56
2022/10/28 10:52:54;;;;;;;1.20;0.17;;;;;;;15.65;100.00;100731.59;5037426;28;20025;-54
2022/10/28 10:55:30;;;;;;;7.38;0.22;;;;;;;15.74;100.00;100741.00;5041116;28;20171;-50
2022/10/28 10:57:56;;;;;;;3.75;1.30;;;;;;;15.97;100.00;100731.56;5035212;28;20033;-55
2022/10/28 11:00:27;;;;;;;2.65;0.28;;;;;;;16.37;100.00;100726.63;5038281;28;20036;-57
2022/10/28 11:02:53;;;;;;;1.88;0.75;;;;;;;16.55;100.00;100718.59;5044980;28;20041;-53
2022/10/28 11:05:21;;;;;;;2.47;0.22;;;;;;;16.74;100.00;100714.00;5034718;28;20384;-52
2022/10/28 11:07:49;;;;;;;2.90;0.10;;;;;;;16.82;100.00;100720.94;5031886;28;20435;-52
2022/10/28 11:10:22;;;;;;;3.92;0.17;;;;;;;16.98;100.00;100720.31;5037592;28;20021;-48
2022/10/28 11:13:00;;;;;;;4.82;0.20;;;;;;;17.14;100.00;100708.16;5034256;28;20390;-50
2022/10/28 11:15:28;;;;;;;1.33;0.22;;;;;;;17.22;100.00;100715.03;5045845;28;20463;-52
2022/10/28 11:17:57;;;;;;;2.75;0.50;;;;;;;17.12;100.00;100723.63;5046328;28;20512;-51
2022/10/28 11:20:48;;;;;;;3.70;0.50;;;;;;;17.04;100.00;100715.91;5037139;28;20078;-53
2022/10/28 11:23:14;;;;;;;5.80;0.10;;;;;;;16.65;100.00;100736.78;5035594;28;20033;-50
2022/10/28 11:25:43;;;;;;;1.33;0.30;;;;;;;16.41;100.00;100746.53;5034745;28;20372;-52
2022/10/28 11:28:24;;;;;;;3.05;1.08;;;;;;;16.18;100.00;100744.50;5034731;28;20045;-50
2022/10/28 11:31:13;;;;;;;0.47;0.47;;;;;;;16.25;100.00;100766.66;5036433;28;20057;-50